Terminal Aerodrome Forecast
Issued by NWS Corpus Christi, TX

Home | Current Version | Previous Version | Text Only | Print | Product List | Glossary On
Versions: 1 2 3 4 5 6 7 8 9 10 11 12 13 14 15 16 17 18 19 20
000
FTUS44 KCRP 012335
TAFCRP
TAF
KCRP 012335Z 0200/0224 20012KT P6SM BKN250
     FM020200 14012KT P6SM SCT250
     FM021000 10005KT P6SM SCT020 BKN150
      TEMPO 0210/0213 BKN020
     FM021500 14014G18KT P6SM VCSH SCT025 BKN200
     FM022000 15018G25KT P6SM SCT030 BKN250=

USA.gov is the U.S. government's official web portal to all federal, state and local government web resources and services.